createdAt,value
2023-07-09T00:01:47.340Z,76.56
2023-07-09T00:04:15.458Z,76.43
2023-07-09T00:06:42.599Z,76.72
2023-07-09T00:09:14.550Z,77.13
2023-07-09T00:11:41.886Z,76.54
2023-07-09T00:14:10.118Z,76.64
2023-07-09T00:16:37.162Z,77.16
2023-07-09T00:19:04.040Z,76.96
2023-07-09T00:21:32.001Z,76.95
2023-07-09T00:23:58.565Z,77.09
2023-07-09T00:26:25.321Z,77.75
2023-07-09T00:28:51.921Z,77.63
2023-07-09T00:31:18.588Z,77.42
2023-07-09T00:33:45.948Z,77.75
2023-07-09T00:36:16.198Z,78.59
2023-07-09T00:38:44.186Z,78.23
2023-07-09T00:41:15.865Z,77.91
2023-07-09T00:43:42.424Z,78.24
2023-07-09T00:46:37.113Z,78.24
2023-07-09T00:49:08.140Z,78.68
2023-07-09T00:51:39.400Z,77.86
2023-07-09T00:54:13.556Z,78.19
2023-07-09T00:56:43.464Z,78.35
2023-07-09T00:59:16.142Z,78.31
2023-07-09T01:01:42.856Z,78.63
2023-07-09T01:04:11.759Z,78.74
2023-07-09T01:06:43.359Z,77.90
2023-07-09T01:09:09.961Z,77.85
2023-07-09T01:11:36.741Z,77.48
2023-07-09T01:14:07.103Z,77.46
2023-07-09T01:16:37.876Z,77.92
2023-07-09T01:19:05.182Z,78.37
2023-07-09T01:21:35.297Z,78.46
2023-07-09T01:24:13.530Z,78.73
2023-07-09T01:26:40.107Z,78.87
2023-07-09T01:29:08.351Z,78.73
2023-07-09T01:31:35.072Z,79.63
2023-07-09T01:34:03.120Z,79.71
2023-07-09T01:36:29.800Z,80.63
2023-07-09T01:38:58.218Z,80.02
2023-07-09T01:41:24.814Z,80.27
2023-07-09T01:43:52.041Z,80.91
2023-07-09T01:46:18.636Z,81.16
2023-07-09T01:48:45.197Z,80.94
2023-07-09T01:51:16.279Z,80.58
2023-07-09T01:53:44.597Z,81.46
2023-07-09T01:56:12.568Z,80.94
2023-07-09T01:58:39.316Z,81.67
2023-07-09T02:01:05.942Z,81.17
2023-07-09T02:03:33.852Z,82.18
2023-07-09T02:06:00.707Z,82.38
2023-07-09T02:08:27.523Z,81.96
2023-07-09T02:10:54.949Z,81.93
2023-07-09T02:13:22.877Z,82.05
2023-07-09T02:15:49.955Z,81.77
2023-07-09T02:18:16.558Z,81.76
2023-07-09T02:20:43.130Z,81.59
2023-07-09T02:23:09.898Z,82.65
2023-07-09T02:25:36.477Z,81.23
2023-07-09T02:28:03.098Z,81.21
2023-07-09T02:30:31.450Z,80.95
2023-07-09T02:32:58.042Z,81.36
2023-07-09T02:35:24.782Z,81.19
2023-07-09T02:37:51.395Z,81.48
2023-07-09T02:40:18.059Z,81.24
2023-07-09T02:42:44.667Z,81.06
2023-07-09T02:45:11.943Z,80.73
2023-07-09T02:47:40.329Z,81.39
2023-07-09T02:50:07.987Z,80.77
2023-07-09T02:52:34.600Z,80.87
2023-07-09T02:55:01.178Z,80.00
2023-07-09T02:57:27.774Z,80.95
2023-07-09T02:59:54.409Z,81.69
2023-07-09T03:02:21.388Z,82.37
2023-07-09T03:04:49.478Z,82.09
2023-07-09T03:07:16.133Z,82.58
2023-07-09T03:09:42.820Z,81.55
2023-07-09T03:12:10.029Z,81.20
2023-07-09T03:14:36.688Z,80.71
2023-07-09T03:17:03.773Z,80.88
2023-07-09T03:19:30.481Z,80.74
2023-07-09T03:21:58.433Z,80.71
2023-07-09T03:24:25.018Z,80.66
2023-07-09T03:26:51.645Z,80.46
2023-07-09T03:29:18.244Z,80.97
2023-07-09T03:31:44.886Z,81.58
2023-07-09T03:34:11.891Z,80.86
2023-07-09T03:36:38.594Z,80.72
2023-07-09T03:39:06.956Z,81.09
2023-07-09T03:41:33.943Z,81.10
2023-07-09T03:44:00.949Z,80.37
2023-07-09T03:46:27.598Z,80.55
2023-07-09T03:48:54.280Z,80.66
2023-07-09T03:51:21.022Z,79.44
2023-07-09T03:53:47.597Z,78.93
2023-07-09T03:56:15.532Z,78.47
2023-07-09T03:58:42.108Z,78.18
2023-07-09T04:01:08.714Z,78.28
2023-07-09T04:03:35.397Z,79.46
2023-07-09T04:06:02.316Z,80.66
2023-07-09T04:08:29.294Z,80.29
2023-07-09T04:10:59.795Z,79.89
2023-07-09T04:13:27.929Z,80.22
2023-07-09T04:15:54.597Z,79.33
2023-07-09T04:18:21.263Z,79.31
2023-07-09T04:20:49.295Z,78.80
2023-07-09T04:23:15.953Z,79.10
2023-07-09T04:25:42.583Z,78.85
2023-07-09T04:28:09.461Z,79.15
2023-07-09T04:30:37.472Z,78.89
2023-07-09T04:33:04.266Z,78.69
2023-07-09T04:35:30.877Z,78.22
2023-07-09T04:37:57.433Z,78.06
2023-07-09T04:40:23.996Z,77.53
2023-07-09T04:42:50.553Z,77.71
2023-07-09T04:45:17.244Z,77.13
2023-07-09T04:47:45.211Z,77.59
2023-07-09T04:50:12.528Z,76.91
2023-07-09T04:52:39.175Z,77.05
2023-07-09T04:55:06.714Z,76.59
2023-07-09T04:57:33.269Z,76.48
2023-07-09T04:59:59.894Z,76.13
2023-07-09T05:02:26.501Z,75.83
2023-07-09T05:04:54.541Z,75.64
2023-07-09T05:07:21.117Z,74.92
2023-07-09T05:09:47.780Z,75.59
2023-07-09T05:12:14.728Z,74.46
2023-07-09T05:14:41.361Z,73.84
2023-07-09T05:17:08.826Z,73.28
2023-07-09T05:19:36.216Z,73.62
2023-07-09T05:22:04.751Z,73.13
2023-07-09T05:24:31.405Z,74.12
2023-07-09T05:26:57.985Z,73.46
2023-07-09T05:29:26.247Z,72.51
2023-07-09T05:31:52.932Z,72.26
2023-07-09T05:34:19.581Z,72.72
2023-07-09T05:36:46.170Z,73.38
2023-07-09T05:39:16.966Z,73.99
2023-07-09T05:41:43.617Z,73.38
2023-07-09T05:44:10.224Z,72.56
2023-07-09T05:46:37.969Z,72.82
2023-07-09T05:49:05.321Z,71.76
2023-07-09T05:51:31.973Z,72.77
2023-07-09T05:53:58.739Z,72.25
2023-07-09T05:56:26.697Z,73.22
2023-07-09T05:58:53.303Z,73.72
2023-07-09T06:01:19.890Z,72.35
2023-07-09T06:03:46.973Z,72.25
2023-07-09T06:06:13.689Z,71.53
2023-07-09T06:08:40.508Z,70.76
2023-07-09T06:11:07.088Z,70.09
2023-07-09T06:13:35.112Z,69.37
2023-07-09T06:16:02.669Z,70.16
2023-07-09T06:18:29.806Z,68.57
2023-07-09T06:20:58.792Z,69.26
2023-07-09T06:23:25.479Z,69.83
2023-07-09T06:25:52.635Z,69.29
2023-07-09T06:28:21.428Z,70.02
2023-07-09T06:30:49.832Z,68.75
2023-07-09T06:33:17.940Z,67.87
2023-07-09T06:35:47.634Z,67.23
2023-07-09T06:38:14.207Z,65.80
2023-07-09T06:40:40.790Z,66.48
2023-07-09T06:43:07.487Z,67.13
2023-07-09T06:45:38.383Z,66.79
2023-07-09T06:48:06.995Z,67.29
2023-07-09T06:50:34.717Z,66.18
2023-07-09T06:53:01.290Z,65.17
2023-07-09T06:55:27.979Z,63.98
2023-07-09T06:57:54.565Z,63.61
2023-07-09T07:00:21.268Z,64.35
2023-07-09T07:02:48.007Z,63.54
2023-07-09T07:05:16.157Z,63.91
2023-07-09T07:07:42.738Z,64.22
2023-07-09T07:10:10.091Z,64.07
2023-07-09T07:12:43.722Z,63.73
2023-07-09T07:15:11.876Z,63.10
2023-07-09T07:17:38.461Z,62.40
2023-07-09T07:20:06.109Z,63.68
2023-07-09T07:22:34.163Z,64.07
2023-07-09T07:25:00.878Z,62.66
2023-07-09T07:27:27.493Z,62.72
2023-07-09T07:29:54.048Z,63.97
2023-07-09T07:32:20.660Z,63.16
2023-07-09T07:34:47.730Z,62.31
2023-07-09T07:37:14.672Z,63.68
2023-07-09T07:39:43.064Z,62.08
2023-07-09T07:42:09.710Z,61.49
2023-07-09T07:44:36.467Z,62.58
2023-07-09T07:47:03.283Z,63.60
2023-07-09T07:49:29.858Z,63.01
2023-07-09T07:51:56.448Z,60.95
2023-07-09T07:54:23.173Z,60.75
2023-07-09T07:56:51.100Z,62.02
2023-07-09T07:59:18.431Z,60.33
2023-07-09T08:01:45.055Z,61.27
2023-07-09T08:04:11.760Z,60.91
2023-07-09T08:06:38.380Z,60.75
2023-07-09T08:09:04.959Z,62.37
2023-07-09T08:11:31.620Z,60.81
2023-07-09T08:13:59.612Z,61.78
2023-07-09T08:16:26.330Z,63.33
2023-07-09T08:18:53.261Z,62.48
2023-07-09T08:21:19.988Z,61.65
2023-07-09T08:23:47.068Z,60.90
2023-07-09T08:26:13.638Z,60.74
2023-07-09T08:28:40.285Z,59.86
2023-07-09T08:31:09.265Z,62.62
2023-07-09T08:33:35.940Z,60.61
2023-07-09T08:36:02.851Z,61.45
2023-07-09T08:38:29.444Z,61.30
2023-07-09T08:40:59.655Z,58.61
2023-07-09T08:43:35.302Z,58.64
2023-07-09T08:46:08.635Z,57.28
2023-07-09T08:48:39.789Z,58.00
2023-07-09T08:51:14.397Z,58.25
2023-07-09T08:53:49.630Z,56.90
2023-07-09T08:56:18.099Z,56.24
2023-07-09T08:58:46.785Z,56.48
2023-07-09T09:01:17.948Z,55.99
2023-07-09T09:03:48.601Z,58.38
2023-07-09T09:06:17.284Z,56.43
2023-07-09T09:08:55.398Z,57.99
2023-07-09T09:11:27.376Z,57.68
2023-07-09T09:13:59.301Z,56.67
2023-07-09T09:16:40.387Z,57.84
2023-07-09T09:19:19.411Z,57.66
2023-07-09T09:21:46.377Z,59.11
2023-07-09T09:24:27.403Z,56.77
2023-07-09T09:26:57.579Z,55.78
2023-07-09T09:29:25.333Z,56.85
2023-07-09T09:31:55.792Z,55.40
2023-07-09T09:34:25.341Z,54.79
2023-07-09T09:36:51.923Z,54.82
2023-07-09T09:39:18.976Z,54.43
2023-07-09T09:41:46.535Z,54.09
2023-07-09T09:44:19.938Z,53.67
2023-07-09T09:46:48.405Z,55.51
2023-07-09T09:49:16.402Z,54.62
2023-07-09T09:51:46.417Z,53.90
2023-07-09T09:54:19.237Z,54.71
2023-07-09T09:56:45.960Z,56.35
2023-07-09T09:59:20.075Z,53.04
2023-07-09T10:01:46.930Z,53.31
2023-07-09T10:04:19.354Z,53.50
2023-07-09T10:06:49.776Z,53.75
2023-07-09T10:09:30.103Z,52.46
2023-07-09T10:12:04.572Z,54.68
2023-07-09T10:14:38.890Z,54.68
2023-07-09T10:17:16.045Z,53.35
2023-07-09T10:19:58.027Z,52.32
2023-07-09T10:22:41.569Z,52.71
2023-07-09T10:25:21.305Z,55.07
2023-07-09T10:28:05.033Z,53.70
2023-07-09T10:30:42.733Z,53.15
2023-07-09T10:33:11.797Z,52.72
2023-07-09T10:35:43.567Z,52.66
2023-07-09T10:38:30.312Z,51.41
2023-07-09T10:41:06.464Z,50.22
2023-07-09T10:43:39.576Z,52.09
2023-07-09T10:46:12.769Z,51.51
2023-07-09T10:48:43.501Z,52.45
2023-07-09T10:51:18.239Z,51.73
2023-07-09T10:53:49.289Z,53.17
2023-07-09T10:56:18.154Z,50.91
2023-07-09T10:58:51.214Z,51.92
2023-07-09T11:01:22.441Z,51.27
2023-07-09T11:03:51.735Z,53.71
2023-07-09T11:06:25.198Z,50.28
2023-07-09T11:08:56.534Z,51.18
2023-07-09T11:11:41.412Z,52.65
2023-07-09T11:14:19.082Z,51.77
2023-07-09T11:16:45.829Z,49.64
2023-07-09T11:19:17.650Z,51.75
2023-07-09T11:21:59.332Z,51.40
2023-07-09T11:24:32.377Z,49.72
2023-07-09T11:26:58.961Z,48.59
2023-07-09T11:29:25.499Z,49.52
2023-07-09T11:31:52.142Z,47.26
2023-07-09T11:34:21.105Z,49.25
2023-07-09T11:36:51.457Z,49.91
2023-07-09T11:39:21.139Z,48.73
2023-07-09T11:41:47.822Z,46.43
2023-07-09T11:44:18.022Z,49.50
2023-07-09T11:46:55.069Z,48.19
2023-07-09T11:49:26.338Z,46.33
2023-07-09T11:51:58.374Z,45.45
2023-07-09T11:54:24.972Z,47.53
2023-07-09T11:56:56.583Z,47.58
2023-07-09T11:59:23.440Z,44.51
2023-07-09T12:01:51.874Z,45.24
2023-07-09T12:04:19.855Z,44.93
2023-07-09T12:06:47.592Z,46.93
2023-07-09T12:09:18.433Z,44.60
2023-07-09T12:11:46.671Z,44.71
2023-07-09T12:14:16.277Z,46.51
2023-07-09T12:16:45.202Z,44.01
2023-07-09T12:19:13.470Z,44.35
2023-07-09T12:21:43.618Z,45.62
2023-07-09T12:24:20.224Z,44.63
2023-07-09T12:26:49.268Z,47.51
2023-07-09T12:29:16.108Z,45.40
2023-07-09T12:31:42.710Z,47.51
2023-07-09T12:34:13.726Z,45.19
2023-07-09T12:36:45.307Z,44.69
2023-07-09T12:39:13.278Z,47.26
2023-07-09T12:41:43.023Z,46.05
2023-07-09T12:44:17.616Z,47.36
2023-07-09T12:46:45.886Z,45.27
2023-07-09T12:49:22.366Z,46.81
2023-07-09T12:51:49.036Z,44.52
2023-07-09T12:54:17.490Z,43.95
2023-07-09T12:56:45.446Z,46.37
2023-07-09T12:59:20.756Z,44.79
2023-07-09T13:01:55.752Z,44.52
2023-07-09T13:04:28.279Z,43.07
2023-07-09T13:06:54.856Z,44.29
2023-07-09T13:09:22.741Z,43.52
2023-07-09T13:11:51.697Z,44.13
2023-07-09T13:14:21.751Z,43.69
2023-07-09T13:16:49.079Z,44.58
2023-07-09T13:19:15.684Z,41.69
2023-07-09T13:21:42.823Z,44.51
2023-07-09T13:24:20.329Z,43.03
2023-07-09T13:26:46.900Z,41.48
2023-07-09T13:29:17.060Z,42.93
2023-07-09T13:31:44.625Z,42.73
2023-07-09T13:34:19.727Z,41.35
2023-07-09T13:36:46.619Z,39.80
2023-07-09T13:39:14.337Z,42.47
2023-07-09T13:41:43.231Z,41.52
2023-07-09T13:44:13.260Z,43.26
2023-07-09T13:46:41.264Z,42.61
2023-07-09T13:49:10.499Z,43.41
2023-07-09T13:51:37.372Z,41.69
2023-07-09T13:54:14.277Z,42.00
2023-07-09T13:56:41.189Z,43.85
2023-07-09T13:59:14.127Z,41.15
2023-07-09T14:01:42.476Z,41.55
2023-07-09T14:04:10.460Z,42.86
2023-07-09T14:06:37.086Z,43.28
2023-07-09T14:09:03.735Z,43.02
2023-07-09T14:11:30.993Z,44.70
2023-07-09T14:13:57.607Z,44.82
2023-07-09T14:16:24.225Z,42.93
2023-07-09T14:18:52.215Z,44.06
2023-07-09T14:21:24.486Z,44.22
2023-07-09T14:23:51.111Z,45.88
2023-07-09T14:26:17.745Z,44.13
2023-07-09T14:28:44.338Z,45.20
2023-07-09T14:31:20.742Z,45.50
2023-07-09T14:33:47.344Z,45.11
2023-07-09T14:36:15.563Z,45.80
2023-07-09T14:38:42.124Z,46.83
2023-07-09T14:41:21.984Z,46.98
2023-07-09T14:43:49.404Z,47.13
2023-07-09T14:46:16.043Z,45.91
2023-07-09T14:48:42.654Z,48.16
2023-07-09T14:51:15.959Z,49.72
2023-07-09T14:53:42.952Z,48.66
2023-07-09T14:56:11.187Z,50.27
2023-07-09T14:58:39.047Z,49.83
2023-07-09T15:01:05.853Z,50.32
2023-07-09T15:03:32.609Z,50.93
2023-07-09T15:05:59.191Z,50.71
2023-07-09T15:08:27.428Z,52.58
2023-07-09T15:10:55.793Z,53.63
2023-07-09T15:13:29.869Z,51.85
2023-07-09T15:15:56.533Z,52.41
2023-07-09T15:18:23.113Z,54.01
2023-07-09T15:20:53.866Z,55.99
2023-07-09T15:23:20.759Z,54.08
2023-07-09T15:25:49.574Z,57.14
2023-07-09T15:28:16.255Z,55.85
2023-07-09T15:30:42.912Z,55.33
2023-07-09T15:33:15.178Z,55.67
2023-07-09T15:35:42.303Z,57.61
2023-07-09T15:38:25.949Z,58.70
2023-07-09T15:40:53.988Z,57.93
2023-07-09T15:43:20.689Z,58.40
2023-07-09T15:45:49.672Z,60.52
2023-07-09T15:48:24.474Z,62.05
2023-07-09T15:50:51.180Z,63.69
2023-07-09T15:53:18.445Z,63.70
2023-07-09T15:55:45.116Z,63.72
2023-07-09T15:58:19.560Z,61.40
2023-07-09T16:00:46.187Z,62.86
2023-07-09T16:03:21.185Z,63.04
2023-07-09T16:05:48.374Z,63.43
2023-07-09T16:08:14.956Z,62.85
2023-07-09T16:10:42.053Z,63.11
2023-07-09T16:13:18.959Z,64.57
2023-07-09T16:15:47.742Z,63.77
2023-07-09T16:18:14.780Z,65.80
2023-07-09T16:20:41.352Z,64.54
2023-07-09T16:23:15.199Z,64.40
2023-07-09T16:25:41.843Z,63.85
2023-07-09T16:28:12.000Z,65.72
2023-07-09T16:30:38.646Z,65.80
2023-07-09T16:33:06.573Z,66.76
2023-07-09T16:35:33.207Z,67.26
2023-07-09T16:38:00.182Z,68.91
2023-07-09T16:40:28.572Z,71.47
2023-07-09T16:42:56.524Z,74.06
2023-07-09T16:45:25.100Z,70.49
2023-07-09T16:47:51.769Z,67.06
2023-07-09T16:50:22.057Z,69.10
2023-07-09T16:52:50.388Z,68.86
2023-07-09T16:55:19.600Z,67.43
2023-07-09T16:57:50.142Z,68.37
2023-07-09T17:00:36.283Z,70.48
2023-07-09T17:03:06.025Z,73.23
2023-07-09T17:05:34.196Z,75.99
2023-07-09T17:08:00.762Z,76.21
2023-07-09T17:10:27.381Z,76.23
2023-07-09T17:12:56.816Z,75.21
2023-07-09T17:15:26.341Z,74.09
2023-07-09T17:17:54.396Z,73.40
2023-07-09T17:20:22.478Z,73.76
2023-07-09T17:22:52.676Z,72.25
2023-07-09T17:25:28.199Z,72.41
2023-07-09T17:27:55.569Z,72.13
2023-07-09T17:30:22.132Z,71.94
2023-07-09T17:32:48.893Z,72.36
2023-07-09T17:35:16.231Z,72.97
2023-07-09T17:37:49.258Z,74.51
2023-07-09T17:42:53.070Z,74.60
2023-07-09T17:45:19.985Z,73.54
2023-07-09T17:47:46.612Z,72.98
2023-07-09T17:50:15.135Z,73.40
2023-07-09T17:52:43.779Z,73.78
2023-07-09T17:55:12.601Z,75.18
2023-07-09T17:57:42.388Z,76.70
2023-07-09T18:00:19.540Z,78.78
2023-07-09T18:02:51.375Z,86.75
2023-07-09T18:05:23.455Z,90.78
2023-07-09T18:07:50.049Z,93.79
2023-07-09T18:10:16.812Z,95.38
2023-07-09T18:12:44.809Z,97.54
2023-07-09T18:15:19.047Z,97.67
2023-07-09T18:17:45.759Z,98.27
2023-07-09T18:20:16.276Z,99.38
2023-07-09T18:22:42.905Z,100.00
2023-07-09T18:25:09.773Z,100.00
2023-07-09T18:27:39.257Z,100.00
2023-07-09T18:30:15.666Z,100.00
2023-07-09T18:32:46.536Z,100.00
2023-07-09T18:35:19.380Z,100.00
2023-07-09T18:37:46.041Z,100.00
2023-07-09T18:40:13.722Z,100.00
2023-07-09T18:42:40.316Z,100.00
2023-07-09T18:45:13.559Z,100.00
2023-07-09T18:47:40.183Z,100.00
2023-07-09T18:50:09.116Z,100.00
2023-07-09T18:52:35.701Z,100.00
2023-07-09T18:55:02.297Z,100.00
2023-07-09T18:57:28.860Z,100.00
2023-07-09T18:59:55.420Z,100.00
2023-07-09T19:02:25.275Z,100.00
2023-07-09T19:04:52.530Z,100.00
2023-07-09T19:07:21.583Z,100.00
2023-07-09T19:09:49.071Z,100.00
2023-07-09T19:12:15.869Z,100.00
2023-07-09T19:14:43.005Z,100.00
2023-07-09T19:17:13.416Z,100.00
2023-07-09T19:19:41.899Z,100.00
2023-07-09T19:22:09.791Z,100.00
2023-07-09T19:24:36.383Z,100.00
2023-07-09T19:27:03.198Z,100.00
2023-07-09T19:29:29.765Z,100.00
2023-07-09T19:31:59.850Z,100.00
2023-07-09T19:34:28.711Z,100.00
2023-07-09T19:36:58.398Z,100.00
2023-07-09T19:39:27.222Z,100.00
2023-07-09T19:41:55.296Z,100.00
2023-07-09T19:44:23.019Z,100.00
2023-07-09T19:46:49.767Z,100.00
2023-07-09T19:49:16.431Z,100.00
2023-07-09T19:51:43.007Z,100.00
2023-07-09T19:54:15.926Z,100.00
2023-07-09T19:56:43.575Z,100.00
2023-07-09T19:59:10.522Z,100.00
2023-07-09T20:01:37.239Z,100.00
2023-07-09T20:04:04.170Z,100.00
2023-07-09T20:06:31.325Z,100.00
2023-07-09T20:08:58.025Z,100.00
2023-07-09T20:11:26.472Z,100.00
2023-07-09T20:13:54.295Z,100.00
2023-07-09T20:16:24.397Z,100.00
2023-07-09T20:18:52.211Z,100.00
2023-07-09T20:21:20.511Z,100.00
2023-07-09T20:23:47.089Z,100.00
2023-07-09T20:26:13.728Z,100.00
2023-07-09T20:28:41.724Z,100.00
2023-07-09T20:31:15.915Z,100.00
2023-07-09T20:33:42.479Z,100.00
2023-07-09T20:36:09.139Z,100.00
2023-07-09T20:38:36.693Z,100.00
2023-07-09T20:41:04.260Z,100.00
2023-07-09T20:43:37.025Z,100.00
2023-07-09T20:46:05.161Z,100.00
2023-07-09T20:48:31.998Z,100.00
2023-07-09T20:50:58.584Z,100.00
2023-07-09T20:53:25.716Z,100.00
2023-07-09T20:55:54.803Z,100.00
2023-07-09T20:58:22.420Z,100.00
2023-07-09T21:00:50.278Z,100.00
2023-07-09T21:03:20.606Z,100.00
2023-07-09T21:05:48.946Z,100.00
2023-07-09T21:08:20.370Z,100.00
2023-07-09T21:10:48.289Z,100.00
2023-07-09T21:13:17.484Z,100.00
2023-07-09T21:15:44.491Z,100.00
2023-07-09T21:18:15.946Z,100.00
2023-07-09T21:20:44.822Z,100.00
2023-07-09T21:23:14.273Z,100.00
2023-07-09T21:25:40.845Z,100.00
2023-07-09T21:28:07.409Z,100.00
2023-07-09T21:30:34.058Z,100.00
2023-07-09T21:33:00.724Z,100.00
2023-07-09T21:35:27.785Z,100.00
2023-07-09T21:37:57.761Z,100.00
2023-07-09T21:40:30.545Z,100.00
2023-07-09T21:42:58.998Z,100.00
2023-07-09T21:45:30.573Z,100.00
2023-07-09T21:47:58.782Z,100.00
2023-07-09T21:50:25.391Z,100.00
2023-07-09T21:52:51.964Z,100.00
2023-07-09T21:55:21.740Z,100.00
2023-07-09T21:57:49.071Z,100.00
2023-07-09T22:00:17.826Z,100.00
2023-07-09T22:02:46.467Z,100.00
2023-07-09T22:05:15.465Z,100.00
2023-07-09T22:07:41.923Z,100.00
2023-07-09T22:10:10.786Z,100.00
2023-07-09T22:12:39.019Z,100.00
2023-07-09T22:15:14.724Z,100.00
2023-07-09T22:17:41.335Z,100.00
2023-07-09T22:20:08.833Z,100.00
2023-07-09T22:22:35.500Z,100.00
2023-07-09T22:25:02.107Z,100.00
2023-07-09T22:27:28.722Z,100.00
2023-07-09T22:29:56.643Z,100.00
2023-07-09T22:32:25.867Z,100.00
2023-07-09T22:35:00.033Z,100.00
2023-07-09T22:37:26.654Z,100.00
2023-07-09T22:39:53.238Z,100.00
2023-07-09T22:42:19.804Z,100.00
2023-07-09T22:44:46.549Z,100.00
2023-07-09T22:47:17.919Z,100.00
2023-07-09T22:49:44.587Z,100.00
2023-07-09T22:52:11.715Z,100.00
2023-07-09T22:54:38.482Z,100.00
2023-07-09T22:57:05.968Z,100.00
2023-07-09T22:59:32.706Z,100.00
2023-07-09T23:01:59.527Z,100.00
2023-07-09T23:04:27.671Z,100.00
2023-07-09T23:06:54.382Z,100.00
2023-07-09T23:09:20.950Z,100.00
2023-07-09T23:11:47.685Z,100.00
2023-07-09T23:14:18.370Z,100.00
2023-07-09T23:16:45.577Z,100.00
2023-07-09T23:19:18.323Z,100.00
2023-07-09T23:21:47.027Z,100.00
2023-07-09T23:24:13.589Z,100.00
2023-07-09T23:26:43.958Z,100.00
2023-07-09T23:29:10.997Z,100.00
2023-07-09T23:31:37.639Z,100.00
2023-07-09T23:34:09.434Z,100.00
2023-07-09T23:36:36.129Z,100.00
2023-07-09T23:39:04.343Z,100.00
2023-07-09T23:41:34.112Z,100.00
2023-07-09T23:44:03.380Z,100.00
2023-07-09T23:46:31.535Z,100.00
2023-07-09T23:49:08.531Z,100.00
2023-07-09T23:51:36.685Z,100.00
2023-07-09T23:54:05.467Z,100.00
2023-07-09T23:56:34.616Z,100.00
2023-07-09T23:59:02.639Z,100.00
